sensor_id;sensor_type;location;lat;lon;timestamp;pressure;altitude;pressure_sealevel;temperature;humidity
65897;BME280;52677;50.898;10.854;2022-10-16T00:00:37;98228.00;;;13.97;98.35
65897;BME280;52677;50.898;10.854;2022-10-16T00:02:39;98226.03;;;13.94;98.40
65897;BME280;52677;50.898;10.854;2022-10-16T00:04:39;98215.31;;;13.93;97.97
65897;BME280;52677;50.898;10.854;2022-10-16T00:06:39;98214.53;;;13.92;98.07
65897;BME280;52677;50.898;10.854;2022-10-16T00:08:40;98200.25;;;13.90;98.39
65897;BME280;52677;50.898;10.854;2022-10-16T00:10:41;98208.59;;;13.87;98.20
65897;BME280;52677;50.898;10.854;2022-10-16T00:12:41;98214.94;;;13.87;98.13
65897;BME280;52677;50.898;10.854;2022-10-16T00:14:41;98209.00;;;13.85;98.24
65897;BME280;52677;50.898;10.854;2022-10-16T00:16:43;98209.81;;;13.82;98.24
65897;BME280;52677;50.898;10.854;2022-10-16T00:18:44;98209.81;;;13.82;98.57
65897;BME280;52677;50.898;10.854;2022-10-16T00:20:44;98215.81;;;13.77;98.31
65897;BME280;52677;50.898;10.854;2022-10-16T00:22:44;98219.41;;;13.74;98.47
65897;BME280;52677;50.898;10.854;2022-10-16T00:24:45;98219.78;;;13.72;98.72
65897;BME280;52677;50.898;10.854;2022-10-16T00:26:45;98217.03;;;13.69;98.21
65897;BME280;52677;50.898;10.854;2022-10-16T00:28:50;98220.63;;;13.62;98.80
65897;BME280;52677;50.898;10.854;2022-10-16T00:30:51;98229.00;;;13.59;99.20
65897;BME280;52677;50.898;10.854;2022-10-16T00:32:52;98227.03;;;13.52;98.73
65897;BME280;52677;50.898;10.854;2022-10-16T00:34:52;98231.03;;;13.47;99.66
65897;BME280;52677;50.898;10.854;2022-10-16T00:36:54;98232.63;;;13.45;99.53
65897;BME280;52677;50.898;10.854;2022-10-16T00:38:56;98237.81;;;13.43;99.33
65897;BME280;52677;50.898;10.854;2022-10-16T00:40:59;98244.16;;;13.40;99.09
65897;BME280;52677;50.898;10.854;2022-10-16T00:43:00;98235.44;;;13.41;99.16
65897;BME280;52677;50.898;10.854;2022-10-16T00:45:00;98236.59;;;13.40;99.56
65897;BME280;52677;50.898;10.854;2022-10-16T00:47:00;98246.53;;;13.41;99.46
65897;BME280;52677;50.898;10.854;2022-10-16T00:49:15;98250.13;;;13.42;99.70
65897;BME280;52677;50.898;10.854;2022-10-16T00:51:19;98242.16;;;13.44;99.26
65897;BME280;52677;50.898;10.854;2022-10-16T00:53:21;98240.56;;;13.46;99.25
65897;BME280;52677;50.898;10.854;2022-10-16T00:55:24;98244.91;;;13.47;99.32
65897;BME280;52677;50.898;10.854;2022-10-16T00:57:24;98241.75;;;13.45;98.90
65897;BME280;52677;50.898;10.854;2022-10-16T00:59:37;98225.91;;;13.42;99.10
65897;BME280;52677;50.898;10.854;2022-10-16T01:01:38;98235.03;;;13.43;98.59
65897;BME280;52677;50.898;10.854;2022-10-16T01:03:38;98230.25;;;13.43;98.28
65897;BME280;52677;50.898;10.854;2022-10-16T01:05:44;98236.22;;;13.38;97.62
65897;BME280;52677;50.898;10.854;2022-10-16T01:08:04;98240.63;;;13.29;97.91
65897;BME280;52677;50.898;10.854;2022-10-16T01:12:58;98243.41;;;13.07;98.48
65897;BME280;52677;50.898;10.854;2022-10-16T01:15:14;98233.94;;;13.01;98.24
65897;BME280;52677;50.898;10.854;2022-10-16T01:17:29;98232.75;;;12.91;98.53
65897;BME280;52677;50.898;10.854;2022-10-16T01:22:05;98234.38;;;12.75;98.98
65897;BME280;52677;50.898;10.854;2022-10-16T01:24:38;98253.41;;;12.69;99.80
65897;BME280;52677;50.898;10.854;2022-10-16T01:27:44;98249.84;;;12.61;99.49
65897;BME280;52677;50.898;10.854;2022-10-16T01:29:26;98241.50;;;12.54;99.98
65897;BME280;52677;50.898;10.854;2022-10-16T01:31:32;98246.66;;;12.52;100.00
65897;BME280;52677;50.898;10.854;2022-10-16T01:33:39;98231.59;;;12.53;100.00
65897;BME280;52677;50.898;10.854;2022-10-16T01:35:43;98245.88;;;12.52;100.00
65897;BME280;52677;50.898;10.854;2022-10-16T01:39:48;98249.81;;;12.47;99.75
65897;BME280;52677;50.898;10.854;2022-10-16T01:42:00;98263.72;;;12.44;99.51
65897;BME280;52677;50.898;10.854;2022-10-16T01:44:20;98258.16;;;12.40;99.77
65897;BME280;52677;50.898;10.854;2022-10-16T01:46:22;98270.44;;;12.39;100.00
65897;BME280;52677;50.898;10.854;2022-10-16T01:48:23;98277.97;;;12.35;100.00
65897;BME280;52677;50.898;10.854;2022-10-16T01:50:24;98276.38;;;12.30;100.00
65897;BME280;52677;50.898;10.854;2022-10-16T01:52:26;98271.22;;;12.29;100.00
65897;BME280;52677;50.898;10.854;2022-10-16T01:54:30;98267.66;;;12.32;100.00
65897;BME280;52677;50.898;10.854;2022-10-16T01:56:32;98264.91;;;12.35;100.00
65897;BME280;52677;50.898;10.854;2022-10-16T01:58:36;98271.63;;;12.45;100.00
65897;BME280;52677;50.898;10.854;2022-10-16T02:00:39;98268.06;;;12.52;100.00
65897;BME280;52677;50.898;10.854;2022-10-16T02:02:43;98262.53;;;12.66;100.00
65897;BME280;52677;50.898;10.854;2022-10-16T02:07:23;98267.66;;;12.89;100.00
65897;BME280;52677;50.898;10.854;2022-10-16T02:09:24;98277.56;;;13.01;100.00
65897;BME280;52677;50.898;10.854;2022-10-16T02:11:24;98274.38;;;13.06;100.00
65897;BME280;52677;50.898;10.854;2022-10-16T02:15:50;98268.81;;;13.24;99.52
65897;BME280;52677;50.898;10.854;2022-10-16T02:17:50;98270.81;;;13.27;99.00
65897;BME280;52677;50.898;10.854;2022-10-16T02:19:52;98271.56;;;13.31;99.00
65897;BME280;52677;50.898;10.854;2022-10-16T02:22:00;98264.44;;;13.30;98.54
65897;BME280;52677;50.898;10.854;2022-10-16T02:24:10;98259.69;;;13.27;98.20
65897;BME280;52677;50.898;10.854;2022-10-16T02:26:22;98262.84;;;13.29;98.43
65897;BME280;52677;50.898;10.854;2022-10-16T02:28:39;98272.78;;;13.33;97.86
65897;BME280;52677;50.898;10.854;2022-10-16T02:30:45;98270.38;;;13.35;98.03
65897;BME280;52677;50.898;10.854;2022-10-16T02:32:48;98272.38;;;13.35;97.42
65897;BME280;52677;50.898;10.854;2022-10-16T02:34:50;98286.22;;;13.38;97.01
65897;BME280;52677;50.898;10.854;2022-10-16T02:36:52;98285.84;;;13.36;97.36
65897;BME280;52677;50.898;10.854;2022-10-16T02:38:53;98293.00;;;13.34;97.23
65897;BME280;52677;50.898;10.854;2022-10-16T02:40:54;98295.00;;;13.33;97.15
65897;BME280;52677;50.898;10.854;2022-10-16T02:42:55;98304.13;;;13.34;97.91
65897;BME280;52677;50.898;10.854;2022-10-16T02:44:55;98300.13;;;13.38;97.70
65897;BME280;52677;50.898;10.854;2022-10-16T02:46:55;98304.91;;;13.38;97.85
65897;BME280;52677;50.898;10.854;2022-10-16T02:48:55;98297.75;;;13.37;97.71
65897;BME280;52677;50.898;10.854;2022-10-16T02:50:56;98300.13;;;13.38;97.88
65897;BME280;52677;50.898;10.854;2022-10-16T02:52:57;98293.81;;;13.34;98.13
65897;BME280;52677;50.898;10.854;2022-10-16T02:54:57;98293.78;;;13.38;98.08
65897;BME280;52677;50.898;10.854;2022-10-16T02:56:57;98299.75;;;13.36;98.22
65897;BME280;52677;50.898;10.854;2022-10-16T02:58:58;98301.72;;;13.36;97.62
65897;BME280;52677;50.898;10.854;2022-10-16T03:00:58;98291.44;;;13.33;97.91
65897;BME280;52677;50.898;10.854;2022-10-16T03:02:58;98301.75;;;13.29;97.96
65897;BME280;52677;50.898;10.854;2022-10-16T03:04:58;98298.19;;;13.28;98.26
65897;BME280;52677;50.898;10.854;2022-10-16T03:06:59;98292.63;;;13.25;98.20
65897;BME280;52677;50.898;10.854;2022-10-16T03:08:59;98286.28;;;13.24;98.24
65897;BME280;52677;50.898;10.854;2022-10-16T03:10:59;98282.31;;;13.21;97.89
65897;BME280;52677;50.898;10.854;2022-10-16T03:13:00;98282.72;;;13.20;98.21
65897;BME280;52677;50.898;10.854;2022-10-16T03:15:00;98293.41;;;13.18;98.43
65897;BME280;52677;50.898;10.854;2022-10-16T03:17:01;98289.84;;;13.21;98.22
65897;BME280;52677;50.898;10.854;2022-10-16T03:19:02;98287.47;;;13.19;98.01
65897;BME280;52677;50.898;10.854;2022-10-16T03:21:02;98293.81;;;13.20;98.15
65897;BME280;52677;50.898;10.854;2022-10-16T03:23:03;98293.03;;;13.19;98.32
65897;BME280;52677;50.898;10.854;2022-10-16T03:25:03;98283.09;;;13.18;97.83
65897;BME280;52677;50.898;10.854;2022-10-16T03:27:04;98285.47;;;13.16;97.73
65897;BME280;52677;50.898;10.854;2022-10-16T03:29:04;98289.84;;;13.14;97.78
65897;BME280;52677;50.898;10.854;2022-10-16T03:31:05;98285.09;;;13.11;97.92
65897;BME280;52677;50.898;10.854;2022-10-16T03:33:06;98287.84;;;13.07;97.76
65897;BME280;52677;50.898;10.854;2022-10-16T03:35:06;98287.47;;;13.02;98.06
65897;BME280;52677;50.898;10.854;2022-10-16T03:37:07;98290.66;;;12.97;98.18
65897;BME280;52677;50.898;10.854;2022-10-16T03:39:07;98305.72;;;12.96;98.02
65897;BME280;52677;50.898;10.854;2022-10-16T03:41:07;98300.97;;;12.89;98.15
65897;BME280;52677;50.898;10.854;2022-10-16T03:43:07;98308.13;;;12.83;98.77
65897;BME280;52677;50.898;10.854;2022-10-16T03:45:08;98309.31;;;12.82;99.33
65897;BME280;52677;50.898;10.854;2022-10-16T03:47:09;98301.75;;;12.82;99.71
65897;BME280;52677;50.898;10.854;2022-10-16T03:49:09;98304.94;;;12.81;100.00
65897;BME280;52677;50.898;10.854;2022-10-16T03:51:09;98306.16;;;12.83;99.92
65897;BME280;52677;50.898;10.854;2022-10-16T03:53:10;98306.16;;;12.83;99.57
65897;BME280;52677;50.898;10.854;2022-10-16T03:55:10;98295.41;;;12.82;98.72
65897;BME280;52677;50.898;10.854;2022-10-16T03:57:10;98294.25;;;12.83;98.56
65897;BME280;52677;50.898;10.854;2022-10-16T03:59:10;98298.59;;;12.80;98.28
65897;BME280;52677;50.898;10.854;2022-10-16T04:01:11;98302.97;;;12.78;97.99
65897;BME280;52677;50.898;10.854;2022-10-16T04:03:11;98303.38;;;12.76;98.55
65897;BME280;52677;50.898;10.854;2022-10-16T04:05:12;98305.75;;;12.71;98.67
65897;BME280;52677;50.898;10.854;2022-10-16T04:07:12;98303.38;;;12.69;98.89
65897;BME280;52677;50.898;10.854;2022-10-16T04:09:12;98304.16;;;12.66;99.48
65897;BME280;52677;50.898;10.854;2022-10-16T04:11:12;98322.38;;;12.63;98.77
65897;BME280;52677;50.898;10.854;2022-10-16T04:13:13;98318.41;;;12.57;99.12
65897;BME280;52677;50.898;10.854;2022-10-16T04:15:13;98321.59;;;12.56;99.50
65897;BME280;52677;50.898;10.854;2022-10-16T04:17:13;98318.81;;;12.52;99.62
65897;BME280;52677;50.898;10.854;2022-10-16T04:19:14;98323.56;;;12.52;99.50
65897;BME280;52677;50.898;10.854;2022-10-16T04:21:14;98329.53;;;12.50;98.85
65897;BME280;52677;50.898;10.854;2022-10-16T04:23:14;98325.53;;;12.48;98.88
65897;BME280;52677;50.898;10.854;2022-10-16T04:25:14;98323.16;;;12.43;99.21
65897;BME280;52677;50.898;10.854;2022-10-16T04:27:15;98324.75;;;12.44;99.48
65897;BME280;52677;50.898;10.854;2022-10-16T04:29:15;98323.94;;;12.40;98.96
65897;BME280;52677;50.898;10.854;2022-10-16T04:31:15;98334.63;;;12.41;99.03
65897;BME280;52677;50.898;10.854;2022-10-16T04:33:15;98331.88;;;12.41;99.17
65897;BME280;52677;50.898;10.854;2022-10-16T04:35:17;98332.66;;;12.38;99.28
65897;BME280;52677;50.898;10.854;2022-10-16T04:37:18;98337.03;;;12.35;99.64
65897;BME280;52677;50.898;10.854;2022-10-16T04:39:18;98343.75;;;12.34;100.00
65897;BME280;52677;50.898;10.854;2022-10-16T04:41:18;98353.28;;;12.33;100.00
65897;BME280;52677;50.898;10.854;2022-10-16T04:43:19;98358.41;;;12.31;100.00
65897;BME280;52677;50.898;10.854;2022-10-16T04:45:19;98359.63;;;12.34;100.00
65897;BME280;52677;50.898;10.854;2022-10-16T04:47:19;98352.09;;;12.38;100.00
65897;BME280;52677;50.898;10.854;2022-10-16T04:49:19;98354.84;;;12.38;100.00
65897;BME280;52677;50.898;10.854;2022-10-16T04:51:20;98371.09;;;12.36;100.00
65897;BME280;52677;50.898;10.854;2022-10-16T04:53:20;98364.38;;;12.33;100.00
65897;BME280;52677;50.898;10.854;2022-10-16T04:55:21;98365.97;;;12.34;100.00
65897;BME280;52677;50.898;10.854;2022-10-16T04:57:21;98361.59;;;12.33;100.00
65897;BME280;52677;50.898;10.854;2022-10-16T04:59:21;98374.69;;;12.36;100.00
65897;BME280;52677;50.898;10.854;2022-10-16T05:01:22;98379.44;;;12.36;100.00
65897;BME280;52677;50.898;10.854;2022-10-16T05:03:22;98376.25;;;12.37;100.00
65897;BME280;52677;50.898;10.854;2022-10-16T05:05:23;98371.50;;;12.38;100.00
65897;BME280;52677;50.898;10.854;2022-10-16T05:07:23;98387.38;;;12.45;100.00
65897;BME280;52677;50.898;10.854;2022-10-16T05:09:23;98387.41;;;12.52;100.00
65897;BME280;52677;50.898;10.854;2022-10-16T05:11:24;98383.44;;;12.56;100.00
65897;BME280;52677;50.898;10.854;2022-10-16T05:13:24;98388.19;;;12.56;100.00
65897;BME280;52677;50.898;10.854;2022-10-16T05:15:24;98386.63;;;12.58;100.00
65897;BME280;52677;50.898;10.854;2022-10-16T05:17:25;98397.34;;;12.60;100.00
65897;BME280;52677;50.898;10.854;2022-10-16T05:19:26;98387.81;;;12.61;100.00
65897;BME280;52677;50.898;10.854;2022-10-16T05:21:26;98386.63;;;12.62;100.00
65897;BME280;52677;50.898;10.854;2022-10-16T05:23:26;98387.41;;;12.59;100.00
65897;BME280;52677;50.898;10.854;2022-10-16T05:25:26;98396.13;;;12.61;100.00
65897;BME280;52677;50.898;10.854;2022-10-16T05:27:27;98399.31;;;12.59;100.00
65897;BME280;52677;50.898;10.854;2022-10-16T05:29:27;98402.88;;;12.60;100.00
65897;BME280;52677;50.898;10.854;2022-10-16T05:31:27;98410.81;;;12.61;100.00
65897;BME280;52677;50.898;10.854;2022-10-16T05:33:28;98402.50;;;12.58;100.00
65897;BME280;52677;50.898;10.854;2022-10-16T05:35:28;98407.25;;;12.61;100.00
65897;BME280;52677;50.898;10.854;2022-10-16T05:37:28;98404.06;;;12.62;100.00
65897;BME280;52677;50.898;10.854;2022-10-16T05:39:28;98415.97;;;12.63;100.00
65897;BME280;52677;50.898;10.854;2022-10-16T05:41:29;98420.72;;;12.62;100.00
65897;BME280;52677;50.898;10.854;2022-10-16T05:43:31;98415.97;;;12.63;100.00
65897;BME280;52677;50.898;10.854;2022-10-16T05:45:31;98426.28;;;12.62;100.00
65897;BME280;52677;50.898;10.854;2022-10-16T05:47:31;98442.13;;;12.58;100.00
65897;BME280;52677;50.898;10.854;2022-10-16T05:49:32;98431.44;;;12.60;100.00
65897;BME280;52677;50.898;10.854;2022-10-16T05:51:32;98419.53;;;12.60;100.00
65897;BME280;52677;50.898;10.854;2022-10-16T05:53:34;98424.69;;;12.61;100.00
65897;BME280;52677;50.898;10.854;2022-10-16T05:55:34;98406.84;;;12.62;100.00
65897;BME280;52677;50.898;10.854;2022-10-16T05:57:34;98400.91;;;12.68;100.00
65897;BME280;52677;50.898;10.854;2022-10-16T05:59:35;98394.56;;;12.71;100.00
65897;BME280;52677;50.898;10.854;2022-10-16T06:01:35;98388.22;;;12.74;100.00
65897;BME280;52677;50.898;10.854;2022-10-16T06:03:35;98397.75;;;12.80;100.00
65897;BME280;52677;50.898;10.854;2022-10-16T06:05:36;98402.53;;;12.83;100.00
65897;BME280;52677;50.898;10.854;2022-10-16T06:07:36;98391.44;;;12.83;100.00
65897;BME280;52677;50.898;10.854;2022-10-16T06:09:36;98401.72;;;12.89;100.00
65897;BME280;52677;50.898;10.854;2022-10-16T06:11:37;98400.53;;;12.90;100.00
65897;BME280;52677;50.898;10.854;2022-10-16T06:13:37;98398.97;;;12.93;100.00
65897;BME280;52677;50.898;10.854;2022-10-16T06:15:41;98410.84;;;12.97;100.00
65897;BME280;52677;50.898;10.854;2022-10-16T06:17:42;98405.31;;;12.97;100.00
65897;BME280;52677;50.898;10.854;2022-10-16T06:19:42;98415.63;;;13.00;100.00
65897;BME280;52677;50.898;10.854;2022-10-16T06:21:42;98404.53;;;13.04;100.00
65897;BME280;52677;50.898;10.854;2022-10-16T06:23:43;98413.63;;;13.04;100.00
65897;BME280;52677;50.898;10.854;2022-10-16T06:25:45;98418.41;;;13.07;99.80
65897;BME280;52677;50.898;10.854;2022-10-16T06:27:46;98420.81;;;13.09;100.00
65897;BME280;52677;50.898;10.854;2022-10-16T06:29:46;98421.19;;;13.11;100.00
65897;BME280;52677;50.898;10.854;2022-10-16T06:31:46;98429.50;;;13.14;100.00
65897;BME280;52677;50.898;10.854;2022-10-16T06:33:50;98428.75;;;13.17;100.00
65897;BME280;52677;50.898;10.854;2022-10-16T06:35:50;98432.31;;;13.21;100.00
65897;BME280;52677;50.898;10.854;2022-10-16T06:37:52;98439.09;;;13.24;100.00
65897;BME280;52677;50.898;10.854;2022-10-16T06:39:53;98436.31;;;13.28;100.00
65897;BME280;52677;50.898;10.854;2022-10-16T06:41:53;98445.03;;;13.33;98.30
65897;BME280;52677;50.898;10.854;2022-10-16T06:43:53;98433.13;;;13.29;98.56
65897;BME280;52677;50.898;10.854;2022-10-16T06:45:55;98438.66;;;13.40;99.72
65897;BME280;52677;50.898;10.854;2022-10-16T06:47:55;98443.84;;;13.41;98.89
65897;BME280;52677;50.898;10.854;2022-10-16T06:49:56;98452.56;;;13.43;98.66
65897;BME280;52677;50.898;10.854;2022-10-16T06:51:56;98449.41;;;13.45;99.06
65897;BME280;52677;50.898;10.854;2022-10-16T06:53:56;98452.19;;;13.45;97.86
65897;BME280;52677;50.898;10.854;2022-10-16T06:55:57;98451.78;;;13.50;98.39
65897;BME280;52677;50.898;10.854;2022-10-16T06:57:57;98462.13;;;13.49;98.99
65897;BME280;52677;50.898;10.854;2022-10-16T06:59:57;98460.50;;;13.52;98.88
65897;BME280;52677;50.898;10.854;2022-10-16T07:01:58;98459.72;;;13.52;99.14
65897;BME280;52677;50.898;10.854;2022-10-16T07:03:58;98465.66;;;13.54;98.87
65897;BME280;52677;50.898;10.854;2022-10-16T07:06:04;98457.34;;;13.57;98.77
65897;BME280;52677;50.898;10.854;2022-10-16T07:08:05;98467.25;;;13.62;98.75
65897;BME280;52677;50.898;10.854;2022-10-16T07:10:05;98464.06;;;13.63;98.24
65897;BME280;52677;50.898;10.854;2022-10-16T07:12:06;98464.50;;;13.65;98.50
65897;BME280;52677;50.898;10.854;2022-10-16T07:14:15;98464.06;;;13.70;98.62
65897;BME280;52677;50.898;10.854;2022-10-16T07:16:19;98465.25;;;13.76;98.36
65897;BME280;52677;50.898;10.854;2022-10-16T07:18:20;98464.44;;;13.80;97.51
65897;BME280;52677;50.898;10.854;2022-10-16T07:20:20;98461.69;;;13.83;97.81
65897;BME280;52677;50.898;10.854;2022-10-16T07:22:20;98459.66;;;13.87;97.35
65897;BME280;52677;50.898;10.854;2022-10-16T07:24:21;98470.78;;;13.87;97.98
65897;BME280;52677;50.898;10.854;2022-10-16T07:26:23;98477.13;;;13.95;97.63
65897;BME280;52677;50.898;10.854;2022-10-16T07:28:23;98473.56;;;13.94;97.42
65897;BME280;52677;50.898;10.854;2022-10-16T07:30:23;98466.41;;;13.93;95.53
65897;BME280;52677;50.898;10.854;2022-10-16T07:32:24;98462.81;;;13.96;95.01
65897;BME280;52677;50.898;10.854;2022-10-16T07:34:25;98467.19;;;13.97;97.01
65897;BME280;52677;50.898;10.854;2022-10-16T07:36:26;98475.53;;;14.01;97.07
65897;BME280;52677;50.898;10.854;2022-10-16T07:38:27;98477.09;;;14.05;96.08
65897;BME280;52677;50.898;10.854;2022-10-16T07:40:27;98463.19;;;14.05;95.33
65897;BME280;52677;50.898;10.854;2022-10-16T07:42:28;98474.31;;;14.13;95.13
65897;BME280;52677;50.898;10.854;2022-10-16T07:44:28;98490.19;;;14.19;96.33
65897;BME280;52677;50.898;10.854;2022-10-16T07:46:29;98488.59;;;14.25;98.16
65897;BME280;52677;50.898;10.854;2022-10-16T07:48:31;98492.91;;;14.37;98.86
65897;BME280;52677;50.898;10.854;2022-10-16T07:50:32;98496.88;;;14.50;99.32
65897;BME280;52677;50.898;10.854;2022-10-16T07:52:32;98498.44;;;14.58;98.30
65897;BME280;52677;50.898;10.854;2022-10-16T07:54:32;98494.88;;;14.58;97.23
65897;BME280;52677;50.898;10.854;2022-10-16T07:56:33;98494.09;;;14.57;95.00
65897;BME280;52677;50.898;10.854;2022-10-16T07:58:34;98500.41;;;14.61;96.09
65897;BME280;52677;50.898;10.854;2022-10-16T08:00:37;98506.78;;;14.62;97.88
65897;BME280;52677;50.898;10.854;2022-10-16T08:02:37;98508.72;;;14.72;99.94
65897;BME280;52677;50.898;10.854;2022-10-16T08:04:37;98502.69;;;14.81;100.00
65897;BME280;52677;50.898;10.854;2022-10-16T08:06:39;98514.22;;;14.86;99.90
65897;BME280;52677;50.898;10.854;2022-10-16T08:08:39;98516.59;;;14.88;99.39
65897;BME280;52677;50.898;10.854;2022-10-16T08:10:40;98530.09;;;14.93;98.56
65897;BME280;52677;50.898;10.854;2022-10-16T08:12:40;98530.13;;;14.89;98.85
65897;BME280;52677;50.898;10.854;2022-10-16T08:14:41;98536.09;;;14.92;98.54
65897;BME280;52677;50.898;10.854;2022-10-16T08:16:41;98544.44;;;14.92;98.60
65897;BME280;52677;50.898;10.854;2022-10-16T08:18:41;98550.00;;;14.95;98.85
65897;BME280;52677;50.898;10.854;2022-10-16T08:20:42;98567.50;;;14.96;99.24
65897;BME280;52677;50.898;10.854;2022-10-16T08:22:43;98556.34;;;14.99;99.27
65897;BME280;52677;50.898;10.854;2022-10-16T08:24:43;98553.13;;;15.04;99.02
65897;BME280;52677;50.898;10.854;2022-10-16T08:26:43;98550.69;;;15.13;98.30
65897;BME280;52677;50.898;10.854;2022-10-16T08:28:43;98558.22;;;15.20;97.14
65897;BME280;52677;50.898;10.854;2022-10-16T08:30:44;98551.41;;;15.28;96.67
65897;BME280;52677;50.898;10.854;2022-10-16T08:32:44;98550.91;;;15.44;97.19
65897;BME280;52677;50.898;10.854;2022-10-16T08:34:45;98545.97;;;15.69;95.18
65897;BME280;52677;50.898;10.854;2022-10-16T08:36:45;98555.06;;;15.81;95.05
65897;BME280;52677;50.898;10.854;2022-10-16T08:38:49;98554.97;;;15.91;95.38
65897;BME280;52677;50.898;10.854;2022-10-16T08:40:50;98564.44;;;16.01;94.71
65897;BME280;52677;50.898;10.854;2022-10-16T08:45:20;98561.09;;;16.17;92.54
65897;BME280;52677;50.898;10.854;2022-10-16T08:47:39;98569.03;;;16.22;92.83
65897;BME280;52677;50.898;10.854;2022-10-16T08:49:58;98561.41;;;16.26;91.36
65897;BME280;52677;50.898;10.854;2022-10-16T08:51:59;98572.19;;;16.24;92.30
65897;BME280;52677;50.898;10.854;2022-10-16T08:54:05;98573.00;;;16.24;90.53
65897;BME280;52677;50.898;10.854;2022-10-16T08:56:06;98577.75;;;16.27;92.25
65897;BME280;52677;50.898;10.854;2022-10-16T08:58:18;98576.47;;;16.36;91.99
65897;BME280;52677;50.898;10.854;2022-10-16T09:00:19;98586.41;;;16.40;92.23
65897;BME280;52677;50.898;10.854;2022-10-16T09:04:42;98590.66;;;16.52;90.59
65897;BME280;52677;50.898;10.854;2022-10-16T09:07:20;98595.16;;;16.42;90.26
65897;BME280;52677;50.898;10.854;2022-10-16T09:12:08;98606.28;;;16.46;89.72
65897;BME280;52677;50.898;10.854;2022-10-16T09:16:41;98607.53;;;16.41;91.00
65897;BME280;52677;50.898;10.854;2022-10-16T09:18:59;98604.66;;;16.48;91.43
65897;BME280;52677;50.898;10.854;2022-10-16T09:21:11;98603.81;;;16.55;90.52
65897;BME280;52677;50.898;10.854;2022-10-16T09:25:17;98605.34;;;16.60;90.35
65897;BME280;52677;50.898;10.854;2022-10-16T09:27:20;98604.56;;;16.59;90.41
65897;BME280;52677;50.898;10.854;2022-10-16T09:29:21;98600.53;;;16.64;90.76
65897;BME280;52677;50.898;10.854;2022-10-16T09:31:23;98600.91;;;16.62;90.07
65897;BME280;52677;50.898;10.854;2022-10-16T09:33:37;98605.28;;;16.63;89.72
65897;BME280;52677;50.898;10.854;2022-10-16T09:35:42;98602.53;;;16.60;89.82
65897;BME280;52677;50.898;10.854;2022-10-16T09:37:44;98602.50;;;16.63;89.86
65897;BME280;52677;50.898;10.854;2022-10-16T09:39:47;98618.03;;;16.68;89.80
65897;BME280;52677;50.898;10.854;2022-10-16T09:41:48;98618.00;;;16.71;90.13
65897;BME280;52677;50.898;10.854;2022-10-16T09:43:53;98627.16;;;16.75;89.69
65897;BME280;52677;50.898;10.854;2022-10-16T09:45:56;98617.94;;;16.78;88.93
65897;BME280;52677;50.898;10.854;2022-10-16T09:47:57;98613.13;;;16.79;88.25
65897;BME280;52677;50.898;10.854;2022-10-16T09:50:03;98621.13;;;16.80;88.71
65897;BME280;52677;50.898;10.854;2022-10-16T09:52:12;98628.28;;;16.81;88.58
65897;BME280;52677;50.898;10.854;2022-10-16T09:54:15;98625.88;;;16.83;88.60
65897;BME280;52677;50.898;10.854;2022-10-16T09:56:30;98633.03;;;16.84;88.39
65897;BME280;52677;50.898;10.854;2022-10-16T09:58:32;98637.03;;;16.83;88.14
65897;BME280;52677;50.898;10.854;2022-10-16T10:00:33;98628.28;;;16.81;88.17
65897;BME280;52677;50.898;10.854;2022-10-16T10:02:35;98646.16;;;16.88;87.95
65897;BME280;52677;50.898;10.854;2022-10-16T10:04:41;98640.22;;;16.85;88.29
65897;BME280;52677;50.898;10.854;2022-10-16T10:06:47;98647.00;;;16.88;88.79
65897;BME280;52677;50.898;10.854;2022-10-16T10:09:00;98639.78;;;16.87;88.61
65897;BME280;52677;50.898;10.854;2022-10-16T10:11:02;98646.16;;;16.91;88.61
65897;BME280;52677;50.898;10.854;2022-10-16T10:13:02;98644.50;;;16.94;89.22
65897;BME280;52677;50.898;10.854;2022-10-16T10:15:12;98643.38;;;16.88;87.62
65897;BME280;52677;50.898;10.854;2022-10-16T10:17:26;98637.78;;;16.88;89.62
65897;BME280;52677;50.898;10.854;2022-10-16T10:19:27;98635.03;;;16.84;89.53
65897;BME280;52677;50.898;10.854;2022-10-16T10:21:27;98632.31;;;16.77;89.23
65897;BME280;52677;50.898;10.854;2022-10-16T10:23:29;98628.28;;;16.81;89.24
65897;BME280;52677;50.898;10.854;2022-10-16T10:33:03;98647.31;;;16.94;88.04
65897;BME280;52677;50.898;10.854;2022-10-16T10:40:32;98659.53;;;16.69;89.86
65897;BME280;52677;50.898;10.854;2022-10-16T10:49:38;98666.91;;;16.45;94.16
65897;BME280;52677;50.898;10.854;2022-10-16T10:54:22;98670.16;;;16.40;96.03
65897;BME280;52677;50.898;10.854;2022-10-16T10:56:41;98666.97;;;16.38;97.34
65897;BME280;52677;50.898;10.854;2022-10-16T11:01:15;98676.91;;;16.43;97.42
65897;BME280;52677;50.898;10.854;2022-10-16T11:06:20;98681.25;;;16.51;97.27
65897;BME280;52677;50.898;10.854;2022-10-16T11:08:43;98682.41;;;16.53;97.35
65897;BME280;52677;50.898;10.854;2022-10-16T11:10:58;98679.66;;;16.50;97.63
65897;BME280;52677;50.898;10.854;2022-10-16T11:15:54;98677.41;;;16.34;99.38
65897;BME280;52677;50.898;10.854;2022-10-16T11:19:21;98681.03;;;16.31;100.00
65897;BME280;52677;50.898;10.854;2022-10-16T11:20:53;98693.81;;;16.25;100.00
65897;BME280;52677;50.898;10.854;2022-10-16T11:22:57;98699.03;;;16.23;100.00
65897;BME280;52677;50.898;10.854;2022-10-16T11:25:13;98691.81;;;16.25;100.00
65897;BME280;52677;50.898;10.854;2022-10-16T11:27:24;98692.66;;;16.22;100.00
65897;BME280;52677;50.898;10.854;2022-10-16T11:29:31;98686.63;;;16.27;100.00
65897;BME280;52677;50.898;10.854;2022-10-16T11:31:41;98692.66;;;16.22;100.00
65897;BME280;52677;50.898;10.854;2022-10-16T11:33:54;98697.03;;;16.20;100.00
65897;BME280;52677;50.898;10.854;2022-10-16T11:36:11;98693.91;;;16.14;100.00